Time;durP1;ratioP1;P1;durP2;ratioP2;P2;SDS_P1;SDS_P2;PMS_P1;PMS_P2;Temp;Humidity;BMP_temperature;BMP_pressure;BME280_temperature;BME280_humidity;BME280_pressure;Samples;Min_cycle;Max_cycle;Signal;HPM_P1;HPM_P2
2021/12/18 00:01:11;;;;;;;;;;;6.80;99.90;;;;;;5077547;28;19928;-82
2021/12/18 00:03:36;;;;;;;;;;;6.80;99.90;;;;;;5057461;28;20052;-85
2021/12/18 00:06:02;;;;;;;;;;;6.80;99.90;;;;;;5093725;28;19931;-83
2021/12/18 00:08:28;;;;;;;;;;;6.80;99.90;;;;;;5094312;28;19928;-82
2021/12/18 00:10:55;;;;;;;;;;;6.80;99.90;;;;;;5077005;28;20392;-82
2021/12/18 00:13:21;;;;;;;;;;;6.80;99.90;;;;;;5079741;28;19979;-82
2021/12/18 00:15:47;;;;;;;;;;;6.80;99.90;;;;;;5098031;28;19946;-81
2021/12/18 00:18:12;;;;;;;;;;;6.80;99.90;;;;;;5081357;28;19927;-83
2021/12/18 00:20:38;;;;;;;;;;;6.70;99.90;;;;;;5092164;28;19924;-86
2021/12/18 00:23:04;;;;;;;;;;;6.80;99.90;;;;;;5081311;28;19924;-83
2021/12/18 00:25:30;;;;;;;;;;;6.80;99.90;;;;;;5079281;28;19924;-82
2021/12/18 00:27:56;;;;;;;;;;;6.80;99.90;;;;;;5081001;28;19927;-84
2021/12/18 00:30:22;;;;;;;;;;;6.80;99.90;;;;;;5064295;28;19973;-82
2021/12/18 00:32:47;;;;;;;;;;;6.80;99.90;;;;;;5097728;28;19931;-83
2021/12/18 00:35:14;;;;;;;;;;;6.80;99.90;;;;;;5089792;28;19931;-84
2021/12/18 00:37:40;;;;;;;;;;;6.70;99.90;;;;;;5094381;28;19938;-86
2021/12/18 00:40:11;;;;;;;;;;;6.80;99.90;;;;;;5077941;28;19924;-81
2021/12/18 00:42:50;;;;;;;;;;;6.80;99.90;;;;;;5061498;28;20069;-82
2021/12/18 00:45:16;;;;;;;;;;;6.80;99.90;;;;;;5092262;28;19989;-83
2021/12/18 00:47:43;;;;;;;;;;;6.70;99.90;;;;;;5078520;28;19924;-86
2021/12/18 00:50:10;;;;;;;;;;;6.70;99.90;;;;;;5090455;28;19924;-83
2021/12/18 00:52:35;;;;;;;;;;;6.70;99.90;;;;;;5077725;28;19928;-81
2021/12/18 00:55:01;;;;;;;;;;;6.70;99.90;;;;;;5091512;28;20065;-81
2021/12/18 00:57:27;;;;;;;;;;;6.70;99.90;;;;;;5094776;28;20011;-81
2021/12/18 00:59:58;;;;;;;;;;;6.70;99.90;;;;;;5117514;27;20007;-82
2021/12/18 01:02:24;;;;;;;;;;;6.70;99.90;;;;;;5093440;28;19931;-82
2021/12/18 01:04:49;;;;;;;;;;;6.70;99.90;;;;;;5080332;28;20389;-82
2021/12/18 01:07:15;;;;;;;;;;;6.70;99.90;;;;;;5092828;28;19973;-82
2021/12/18 01:12:12;;;;;;;;;;;6.70;99.90;;;;;;5081181;28;19946;-82
2021/12/18 01:23:17;;;;;;;;;;;6.70;99.90;;;;;;5096558;28;19938;-82
2021/12/18 01:25:12;;;;;;;;;;;6.70;99.90;;;;;;5078763;28;19923;-82
2021/12/18 01:27:37;;;;;;;;;;;6.80;99.90;;;;;;5063344;28;19932;-82
2021/12/18 01:30:04;;;;;;;;;;;6.80;99.90;;;;;;5095925;28;19974;-82
2021/12/18 01:32:30;;;;;;;;;;;6.80;99.90;;;;;;5096525;28;20447;-82
2021/12/18 01:34:56;;;;;;;;;;;6.80;99.90;;;;;;5079944;28;20357;-81
2021/12/18 01:37:21;;;;;;;;;;;6.70;99.90;;;;;;5091788;28;19967;-82
2021/12/18 01:39:47;;;;;;;;;;;6.70;99.90;;;;;;5096734;28;19923;-86
2021/12/18 01:45:07;;;;;;;;;;;6.80;99.90;;;;;;5096703;28;19962;-86
2021/12/18 01:52:45;;;;;;;;;;;6.70;99.90;;;;;;5093351;28;20070;-82
2021/12/18 01:55:11;;;;;;;;;;;6.70;99.90;;;;;;5093381;28;20003;-82
2021/12/18 01:57:37;;;;;;;;;;;6.70;99.90;;;;;;5089104;28;19925;-82
2021/12/18 02:00:23;;;;;;;;;;;6.60;99.90;;;;;;5073626;28;19928;-81
2021/12/18 02:02:49;;;;;;;;;;;6.60;99.90;;;;;;5107345;28;19924;-84
2021/12/18 02:05:14;;;;;;;;;;;6.60;99.90;;;;;;5092710;28;19924;-83
2021/12/18 02:07:41;;;;;;;;;;;6.50;99.90;;;;;;5086177;28;20023;-81
2021/12/18 02:10:10;;;;;;;;;;;6.50;99.90;;;;;;5092499;28;19924;-81
2021/12/18 02:12:46;;;;;;;;;;;6.50;99.90;;;;;;5096095;28;20045;-82
2021/12/18 02:20:45;;;;;;;;;;;6.50;99.90;;;;;;5092955;28;20399;-82
2021/12/18 02:23:11;;;;;;;;;;;6.50;99.90;;;;;;5092082;28;19985;-81
2021/12/18 02:25:37;;;;;;;;;;;6.50;99.90;;;;;;5074001;28;19950;-81
2021/12/18 02:28:07;;;;;;;;;;;6.50;99.90;;;;;;5092349;28;19928;-83
2021/12/18 02:30:33;;;;;;;;;;;6.50;99.90;;;;;;5092078;28;19935;-82
2021/12/18 02:32:59;;;;;;;;;;;6.50;99.90;;;;;;5075145;28;19924;-82
2021/12/18 02:35:28;;;;;;;;;;;6.50;99.90;;;;;;5074501;28;19935;-81
2021/12/18 02:38:17;;;;;;;;;;;6.50;99.90;;;;;;5072123;28;19928;-86
2021/12/18 02:43:17;;;;;;;;;;;6.40;99.90;;;;;;5087931;28;19933;-81
2021/12/18 02:45:43;;;;;;;;;;;6.50;99.90;;;;;;5055321;28;20015;-81
2021/12/18 02:48:08;;;;;;;;;;;6.50;99.90;;;;;;5074645;28;20010;-82
2021/12/18 02:50:38;;;;;;;;;;;6.50;99.90;;;;;;5117435;27;19978;-81
2021/12/18 02:53:04;;;;;;;;;;;6.40;99.90;;;;;;5074645;28;19935;-82
2021/12/18 02:55:30;;;;;;;;;;;6.40;99.90;;;;;;5067163;28;19946;-82
2021/12/18 02:57:55;;;;;;;;;;;6.40;99.90;;;;;;5124513;27;20026;-86
2021/12/18 03:00:23;;;;;;;;;;;6.40;99.90;;;;;;5096836;28;19931;-82
2021/12/18 03:02:48;;;;;;;;;;;6.30;99.90;;;;;;5075043;28;19924;-81
2021/12/18 03:05:21;;;;;;;;;;;6.30;99.90;;;;;;5090684;28;19928;-81
2021/12/18 03:07:52;;;;;;;;;;;6.30;99.90;;;;;;5091531;28;20285;-81
2021/12/18 03:22:09;;;;;;;;;;;6.40;99.90;;;;;;5059219;28;19925;-81
2021/12/18 03:24:56;;;;;;;;;;;6.40;99.90;;;;;;5104082;28;19925;-81
2021/12/18 03:26:57;;;;;;;;;;;6.40;99.90;;;;;;5089055;28;19924;-82
2021/12/18 03:29:23;;;;;;;;;;;6.40;99.90;;;;;;5092138;28;19950;-81
2021/12/18 03:31:49;;;;;;;;;;;6.40;99.90;;;;;;5074901;28;19928;-80
2021/12/18 03:34:14;;;;;;;;;;;6.40;99.90;;;;;;5073930;28;19933;-81
2021/12/18 03:36:40;;;;;;;;;;;6.40;99.90;;;;;;5041152;28;19924;-81
2021/12/18 03:39:06;;;;;;;;;;;6.40;99.90;;;;;;5091402;28;20381;-80
2021/12/18 03:41:31;;;;;;;;;;;6.30;99.90;;;;;;5106456;28;19925;-81
2021/12/18 03:43:57;;;;;;;;;;;6.40;99.90;;;;;;5115779;27;20403;-82
2021/12/18 03:46:23;;;;;;;;;;;6.30;99.90;;;;;;5074212;28;19985;-82
2021/12/18 03:48:48;;;;;;;;;;;6.30;99.90;;;;;;5106581;28;20125;-80
2021/12/18 03:51:14;;;;;;;;;;;6.30;99.90;;;;;;5077257;28;19927;-81
2021/12/18 03:53:39;;;;;;;;;;;6.30;99.90;;;;;;5061293;28;19935;-81
2021/12/18 03:56:05;;;;;;;;;;;6.30;99.90;;;;;;5077065;28;19930;-85
2021/12/18 03:58:31;;;;;;;;;;;6.30;99.90;;;;;;5094752;28;19928;-80
2021/12/18 04:00:56;;;;;;;;;;;6.30;99.90;;;;;;5077400;28;19924;-82
2021/12/18 04:03:22;;;;;;;;;;;6.20;99.90;;;;;;5092013;28;19931;-81
2021/12/18 04:05:48;;;;;;;;;;;6.30;99.90;;;;;;5073685;28;19928;-81
2021/12/18 04:08:14;;;;;;;;;;;6.30;99.90;;;;;;5075927;28;19923;-81
2021/12/18 04:10:40;;;;;;;;;;;6.40;99.90;;;;;;5082984;28;19928;-82
2021/12/18 04:13:07;;;;;;;;;;;6.30;99.90;;;;;;5089266;28;19936;-89
2021/12/18 04:15:33;;;;;;;;;;;6.30;99.90;;;;;;5070780;28;19924;-82
2021/12/18 04:17:58;;;;;;;;;;;6.30;99.90;;;;;;5092421;28;19935;-82
2021/12/18 04:20:24;;;;;;;;;;;6.30;99.90;;;;;;5075222;28;19924;-82
2021/12/18 04:22:50;;;;;;;;;;;6.30;99.90;;;;;;5093539;28;19924;-82
2021/12/18 04:25:16;;;;;;;;;;;6.30;99.90;;;;;;5076235;28;19932;-83
2021/12/18 04:27:41;;;;;;;;;;;6.30;99.90;;;;;;5090037;28;19969;-87
2021/12/18 04:30:07;;;;;;;;;;;6.30;99.90;;;;;;5076940;28;19997;-84
2021/12/18 04:32:33;;;;;;;;;;;6.30;99.90;;;;;;5092790;28;19999;-82
2021/12/18 04:34:58;;;;;;;;;;;6.30;99.90;;;;;;5076432;28;19928;-82
2021/12/18 04:37:24;;;;;;;;;;;6.30;99.90;;;;;;5093361;28;19930;-81
2021/12/18 04:39:50;;;;;;;;;;;6.30;99.90;;;;;;5110525;28;19985;-82
2021/12/18 04:42:16;;;;;;;;;;;6.40;99.90;;;;;;5089652;28;19928;-83
2021/12/18 04:44:41;;;;;;;;;;;6.40;99.90;;;;;;5092690;28;19977;-82
2021/12/18 04:47:07;;;;;;;;;;;6.30;99.90;;;;;;5076245;28;19930;-81
2021/12/18 04:49:32;;;;;;;;;;;6.30;99.90;;;;;;5075483;28;19958;-82
2021/12/18 04:51:58;;;;;;;;;;;6.40;99.90;;;;;;5069687;28;19938;-82
2021/12/18 04:54:24;;;;;;;;;;;6.40;99.90;;;;;;5075980;28;19924;-82
2021/12/18 04:56:49;;;;;;;;;;;6.40;99.90;;;;;;5093488;28;19931;-81
2021/12/18 04:59:15;;;;;;;;;;;6.40;99.90;;;;;;5077335;28;19924;-82
2021/12/18 05:01:41;;;;;;;;;;;6.40;99.90;;;;;;5080810;28;19924;-81
2021/12/18 05:04:09;;;;;;;;;;;6.40;99.90;;;;;;5080366;28;19930;-81
2021/12/18 05:06:37;;;;;;;;;;;6.40;99.90;;;;;;5080711;28;19934;-81
2021/12/18 05:09:04;;;;;;;;;;;6.30;99.90;;;;;;5095762;28;20346;-81
2021/12/18 05:11:30;;;;;;;;;;;6.30;99.90;;;;;;5105709;28;19924;-80
2021/12/18 05:13:55;;;;;;;;;;;6.30;99.90;;;;;;5111171;28;19931;-83
2021/12/18 05:16:21;;;;;;;;;;;6.20;99.90;;;;;;5096948;28;19931;-81
2021/12/18 05:18:47;;;;;;;;;;;6.30;99.90;;;;;;5096398;28;19928;-81
2021/12/18 05:21:12;;;;;;;;;;;6.30;99.90;;;;;;5095744;28;19924;-81
2021/12/18 05:23:38;;;;;;;;;;;6.30;99.90;;;;;;5096944;28;19930;-81
2021/12/18 05:26:03;;;;;;;;;;;6.30;99.90;;;;;;5101465;28;19977;-81
2021/12/18 05:28:29;;;;;;;;;;;6.30;99.90;;;;;;5100019;28;20002;-81
2021/12/18 05:30:54;;;;;;;;;;;6.30;99.90;;;;;;5080110;28;20400;-80
2021/12/18 05:33:20;;;;;;;;;;;6.40;99.90;;;;;;5074867;28;19924;-81
2021/12/18 05:35:46;;;;;;;;;;;6.40;99.90;;;;;;5073365;28;19945;-81
2021/12/18 05:38:11;;;;;;;;;;;6.40;99.90;;;;;;5092765;28;19963;-82
2021/12/18 05:40:38;;;;;;;;;;;6.40;99.90;;;;;;5096079;28;19938;-80
2021/12/18 05:43:04;;;;;;;;;;;6.40;99.90;;;;;;5095178;28;19967;-81
2021/12/18 05:45:29;;;;;;;;;;;6.40;99.90;;;;;;5096073;28;19924;-81
2021/12/18 05:47:55;;;;;;;;;;;6.50;99.90;;;;;;5097082;28;19931;-80
2021/12/18 05:50:21;;;;;;;;;;;6.50;99.90;;;;;;5095486;28;19928;-81
2021/12/18 05:52:48;;;;;;;;;;;6.40;99.90;;;;;;5097050;28;19972;-81
2021/12/18 05:55:15;;;;;;;;;;;6.40;99.90;;;;;;5114527;28;19928;-80
2021/12/18 05:57:41;;;;;;;;;;;6.50;99.90;;;;;;5096384;28;19928;-80
2021/12/18 06:00:08;;;;;;;;;;;6.50;99.90;;;;;;5096588;28;20288;-80
2021/12/18 06:02:33;;;;;;;;;;;6.50;99.90;;;;;;5114432;28;19934;-80
2021/12/18 06:04:59;;;;;;;;;;;6.50;99.90;;;;;;5096440;28;19923;-80
2021/12/18 06:07:38;;;;;;;;;;;6.50;99.90;;;;;;5095937;28;20292;-80
2021/12/18 06:10:04;;;;;;;;;;;6.50;99.90;;;;;;5085198;28;19951;-80
2021/12/18 06:12:29;;;;;;;;;;;6.60;99.90;;;;;;5068169;28;20307;-80
2021/12/18 06:14:55;;;;;;;;;;;6.60;99.90;;;;;;5110239;28;19924;-83
2021/12/18 06:17:20;;;;;;;;;;;6.60;99.90;;;;;;5101826;28;19928;-86
2021/12/18 06:19:46;;;;;;;;;;;6.60;99.90;;;;;;5098435;28;19924;-82
2021/12/18 06:22:12;;;;;;;;;;;6.50;99.90;;;;;;5096497;28;19931;-81
2021/12/18 06:24:37;;;;;;;;;;;6.60;99.90;;;;;;5078839;28;19973;-81
2021/12/18 06:27:03;;;;;;;;;;;6.70;99.90;;;;;;5081240;28;19928;-81
2021/12/18 06:29:31;;;;;;;;;;;6.70;99.90;;;;;;5112430;28;20373;-80
2021/12/18 06:31:57;;;;;;;;;;;6.70;99.90;;;;;;5093263;28;20377;-80
2021/12/18 06:34:22;;;;;;;;;;;6.70;99.90;;;;;;5086563;28;19958;-88
2021/12/18 06:36:48;;;;;;;;;;;6.80;99.90;;;;;;5095911;28;19924;-80
2021/12/18 06:39:13;;;;;;;;;;;6.80;99.90;;;;;;5077861;28;19924;-81
2021/12/18 06:41:39;;;;;;;;;;;6.70;99.90;;;;;;5078471;28;20377;-80
2021/12/18 06:44:05;;;;;;;;;;;6.80;99.90;;;;;;5078562;28;19923;-81
2021/12/18 06:46:31;;;;;;;;;;;6.80;99.90;;;;;;5078916;28;19927;-80
2021/12/18 06:48:56;;;;;;;;;;;6.80;99.90;;;;;;5062298;28;20444;-81
2021/12/18 06:51:22;;;;;;;;;;;6.80;99.90;;;;;;5066763;28;19932;-80
2021/12/18 06:53:48;;;;;;;;;;;6.90;99.90;;;;;;5092374;28;20422;-81
2021/12/18 06:56:13;;;;;;;;;;;6.90;99.90;;;;;;5059108;28;19963;-81
2021/12/18 06:58:39;;;;;;;;;;;6.90;99.90;;;;;;5083740;28;19938;-81
2021/12/18 07:01:05;;;;;;;;;;;7.00;99.90;;;;;;5115607;27;19977;-81
2021/12/18 07:03:31;;;;;;;;;;;6.90;99.90;;;;;;5072892;28;19930;-81
2021/12/18 07:05:56;;;;;;;;;;;7.00;99.90;;;;;;5118480;27;19931;-80
2021/12/18 07:08:22;;;;;;;;;;;6.90;99.90;;;;;;5078244;28;19985;-79
2021/12/18 07:10:48;;;;;;;;;;;7.10;99.90;;;;;;5103912;28;20495;-79
2021/12/18 07:13:13;;;;;;;;;;;7.00;99.90;;;;;;5113695;27;19928;-80
2021/12/18 07:15:39;;;;;;;;;;;7.10;99.90;;;;;;5080996;28;19924;-79
2021/12/18 07:18:05;;;;;;;;;;;7.00;99.90;;;;;;5078647;28;19931;-80
2021/12/18 07:20:31;;;;;;;;;;;7.10;99.90;;;;;;5078085;28;19923;-84
2021/12/18 07:22:57;;;;;;;;;;;7.10;99.90;;;;;;5094688;28;20315;-80
2021/12/18 07:25:22;;;;;;;;;;;7.10;99.90;;;;;;5093291;28;19928;-80
2021/12/18 07:27:48;;;;;;;;;;;7.10;99.90;;;;;;5112066;28;19989;-80
2021/12/18 07:30:15;;;;;;;;;;;7.20;99.90;;;;;;5094521;28;19935;-80
2021/12/18 07:32:41;;;;;;;;;;;7.20;99.90;;;;;;5058918;28;19928;-80
2021/12/18 07:35:07;;;;;;;;;;;7.20;99.90;;;;;;5094855;28;19932;-81
2021/12/18 07:37:33;;;;;;;;;;;7.20;99.90;;;;;;5080032;28;19934;-81
2021/12/18 07:39:58;;;;;;;;;;;7.20;99.90;;;;;;5094704;28;19924;-81
2021/12/18 07:42:24;;;;;;;;;;;7.30;99.90;;;;;;5084061;28;19930;-81
2021/12/18 07:44:50;;;;;;;;;;;7.30;99.90;;;;;;5077974;28;20014;-80
2021/12/18 07:47:16;;;;;;;;;;;7.30;99.90;;;;;;5095037;28;19967;-81
2021/12/18 07:49:41;;;;;;;;;;;7.40;99.90;;;;;;5094031;28;20349;-82
2021/12/18 07:52:07;;;;;;;;;;;7.40;99.90;;;;;;5062216;28;19924;-81
2021/12/18 07:54:33;;;;;;;;;;;7.40;99.90;;;;;;5059229;28;19928;-87
2021/12/18 07:56:59;;;;;;;;;;;7.40;99.90;;;;;;5060540;28;19931;-80
2021/12/18 07:59:25;;;;;;;;;;;7.50;99.90;;;;;;5071606;28;19924;-80
2021/12/18 08:01:50;;;;;;;;;;;7.50;99.90;;;;;;5092339;28;20377;-80
2021/12/18 08:04:16;;;;;;;;;;;7.50;99.90;;;;;;5123898;28;20006;-80
2021/12/18 08:06:41;;;;;;;;;;;7.50;99.90;;;;;;5074810;28;20023;-81
2021/12/18 08:09:07;;;;;;;;;;;7.70;99.90;;;;;;5076037;28;19924;-80
2021/12/18 08:11:33;;;;;;;;;;;7.50;99.90;;;;;;5077097;28;19981;-82
2021/12/18 08:13:58;;;;;;;;;;;7.70;99.90;;;;;;5093676;28;19924;-80
2021/12/18 08:16:24;;;;;;;;;;;7.70;99.90;;;;;;5091775;28;19985;-80
2021/12/18 08:18:50;;;;;;;;;;;7.70;99.90;;;;;;5073641;28;19928;-82
2021/12/18 08:21:15;;;;;;;;;;;7.80;99.90;;;;;;5090771;28;19924;-80
2021/12/18 08:23:41;;;;;;;;;;;7.70;99.90;;;;;;5120487;28;19934;-79
2021/12/18 08:26:06;;;;;;;;;;;7.80;99.90;;;;;;5074614;28;19925;-80
2021/12/18 08:28:32;;;;;;;;;;;7.80;99.90;;;;;;5076931;28;19963;-80
2021/12/18 08:30:58;;;;;;;;;;;7.90;99.90;;;;;;5094081;28;19926;-80
2021/12/18 08:33:23;;;;;;;;;;;7.80;99.90;;;;;;5081169;28;19977;-80
2021/12/18 08:35:49;;;;;;;;;;;7.80;99.90;;;;;;5080255;28;20647;-80
2021/12/18 08:38:15;;;;;;;;;;;7.90;99.90;;;;;;5081581;28;19932;-79
2021/12/18 08:40:42;;;;;;;;;;;7.90;99.90;;;;;;5084548;28;19930;-81
2021/12/18 08:43:08;;;;;;;;;;;7.90;99.90;;;;;;5062443;28;19923;-80
2021/12/18 08:45:33;;;;;;;;;;;7.90;99.90;;;;;;5080835;28;20007;-81
2021/12/18 08:47:59;;;;;;;;;;;7.90;99.90;;;;;;5088566;28;20369;-80
2021/12/18 08:50:25;;;;;;;;;;;8.00;99.90;;;;;;5086227;27;19971;-80
2021/12/18 08:52:51;;;;;;;;;;;8.00;99.90;;;;;;5109020;28;20022;-80
2021/12/18 08:55:17;;;;;;;;;;;8.00;99.90;;;;;;5104986;28;20343;-80
2021/12/18 08:57:43;;;;;;;;;;;8.00;99.90;;;;;;5079097;28;19934;-81
2021/12/18 09:00:10;;;;;;;;;;;8.00;99.90;;;;;;5096069;28;19924;-79
2021/12/18 09:02:36;;;;;;;;;;;8.00;99.90;;;;;;5061452;28;19931;-79
2021/12/18 09:05:02;;;;;;;;;;;8.10;99.90;;;;;;5097425;28;19920;-81
2021/12/18 09:07:28;;;;;;;;;;;8.10;99.90;;;;;;5088813;28;19931;-80
2021/12/18 09:09:53;;;;;;;;;;;8.10;99.90;;;;;;5063336;28;20411;-76
2021/12/18 09:12:19;;;;;;;;;;;8.10;99.90;;;;;;5077789;28;19928;-77
2021/12/18 09:14:44;;;;;;;;;;;8.10;99.90;;;;;;5115266;27;19923;-80
2021/12/18 09:17:10;;;;;;;;;;;8.10;99.90;;;;;;5087588;27;20010;-78
2021/12/18 09:19:36;;;;;;;;;;;8.10;99.90;;;;;;5103570;27;19935;-77
2021/12/18 09:22:04;;;;;;;;;;;8.10;99.90;;;;;;5094374;28;19924;-78
2021/12/18 09:24:30;;;;;;;;;;;8.10;99.90;;;;;;5095680;28;19924;-79
2021/12/18 09:26:55;;;;;;;;;;;8.10;99.90;;;;;;5085707;28;19931;-78
2021/12/18 09:29:21;;;;;;;;;;;8.10;99.90;;;;;;5081835;28;19985;-80
2021/12/18 09:31:46;;;;;;;;;;;8.20;99.90;;;;;;5097800;28;20015;-85
2021/12/18 09:34:12;;;;;;;;;;;8.10;99.90;;;;;;5097700;28;19978;-77
2021/12/18 09:36:38;;;;;;;;;;;8.20;99.90;;;;;;5098347;28;19945;-77
2021/12/18 09:39:04;;;;;;;;;;;8.20;99.90;;;;;;5060218;28;19935;-75
2021/12/18 09:41:29;;;;;;;;;;;8.20;99.90;;;;;;5099927;28;19931;-77
2021/12/18 09:43:55;;;;;;;;;;;8.20;99.90;;;;;;5087658;28;20006;-77
2021/12/18 09:46:20;;;;;;;;;;;8.20;99.90;;;;;;5092951;28;19924;-77
2021/12/18 09:48:47;;;;;;;;;;;8.30;99.90;;;;;;5115666;28;19927;-87
2021/12/18 09:51:22;;;;;;;;;;;8.30;99.90;;;;;;5079933;28;20397;-81
2021/12/18 09:53:50;;;;;;;;;;;8.30;99.90;;;;;;5079620;28;20368;-86
2021/12/18 09:56:15;;;;;;;;;;;8.40;99.90;;;;;;5115801;28;19959;-78
2021/12/18 09:58:41;;;;;;;;;;;8.40;99.90;;;;;;5114604;28;19974;-77
2021/12/18 10:01:07;;;;;;;;;;;8.40;99.90;;;;;;5096929;27;19927;-77
2021/12/18 10:03:42;;;;;;;;;;;8.40;99.90;;;;;;5097099;27;19932;-77
2021/12/18 10:06:26;;;;;;;;;;;8.40;99.90;;;;;;5094112;28;20035;-77
2021/12/18 10:08:51;;;;;;;;;;;8.40;99.90;;;;;;5112064;28;19966;-78
2021/12/18 10:11:18;;;;;;;;;;;8.40;99.90;;;;;;5096899;28;19963;-78
2021/12/18 10:13:51;;;;;;;;;;;8.50;99.90;;;;;;5106834;28;19938;-78
2021/12/18 10:16:17;;;;;;;;;;;8.50;99.90;;;;;;5079796;28;20438;-79
2021/12/18 10:18:42;;;;;;;;;;;8.50;99.90;;;;;;5096575;28;19971;-81
2021/12/18 10:21:09;;;;;;;;;;;8.50;99.90;;;;;;5114709;28;19928;-77
2021/12/18 10:23:35;;;;;;;;;;;8.60;99.90;;;;;;5094454;28;19989;-79
2021/12/18 10:26:00;;;;;;;;;;;8.60;99.90;;;;;;5090412;28;19970;-78
2021/12/18 10:28:41;;;;;;;;;;;8.60;99.90;;;;;;5094355;28;19924;-77
2021/12/18 10:31:07;;;;;;;;;;;8.60;99.90;;;;;;5120312;27;20340;-77
2021/12/18 10:33:35;;;;;;;;;;;8.60;99.90;;;;;;5095902;28;19978;-78
2021/12/18 10:36:01;;;;;;;;;;;8.60;99.90;;;;;;5078910;28;19928;-78
2021/12/18 10:38:38;;;;;;;;;;;8.60;99.90;;;;;;5093075;28;19931;-78
2021/12/18 10:41:24;;;;;;;;;;;8.60;99.90;;;;;;5112891;27;19928;-79
2021/12/18 10:43:54;;;;;;;;;;;8.60;99.90;;;;;;5086240;28;19932;-78
2021/12/18 10:46:20;;;;;;;;;;;8.60;99.90;;;;;;5091626;28;20014;-78
2021/12/18 10:48:58;;;;;;;;;;;8.50;99.90;;;;;;5078313;28;20024;-79
2021/12/18 10:51:24;;;;;;;;;;;8.50;99.90;;;;;;5060185;28;19928;-78
2021/12/18 10:53:49;;;;;;;;;;;8.50;99.90;;;;;;5116386;27;19930;-77
2021/12/18 10:56:30;;;;;;;;;;;8.60;99.90;;;;;;5076808;28;20552;-76
2021/12/18 10:58:55;;;;;;;;;;;8.50;99.90;;;;;;5100692;28;19927;-86
2021/12/18 11:01:21;;;;;;;;;;;8.60;99.90;;;;;;5076939;28;19927;-81
2021/12/18 11:03:48;;;;;;;;;;;8.60;99.90;;;;;;5093212;28;20368;-80
2021/12/18 11:06:24;;;;;;;;;;;8.70;99.90;;;;;;5070040;28;19986;-81
2021/12/18 11:08:55;;;;;;;;;;;8.60;99.90;;;;;;5074704;28;19928;-80
2021/12/18 11:14:07;;;;;;;;;;;8.70;99.90;;;;;;5074721;28;19923;-78
2021/12/18 11:16:35;;;;;;;;;;;8.70;99.90;;;;;;5091743;28;19931;-81
2021/12/18 11:19:03;;;;;;;;;;;8.70;99.90;;;;;;5104092;27;19980;-81
2021/12/18 11:21:30;;;;;;;;;;;8.80;99.90;;;;;;5110861;27;19924;-79
2021/12/18 11:24:01;;;;;;;;;;;8.80;99.90;;;;;;5114273;27;19930;-79
2021/12/18 11:26:30;;;;;;;;;;;8.80;99.90;;;;;;5111907;28;19941;-79
2021/12/18 11:28:58;;;;;;;;;;;8.90;99.90;;;;;;5074554;28;19927;-78
2021/12/18 11:31:25;;;;;;;;;;;8.90;99.90;;;;;;5110302;28;20002;-78
2021/12/18 11:33:51;;;;;;;;;;;8.90;99.90;;;;;;5095136;28;19924;-77
2021/12/18 11:36:17;;;;;;;;;;;8.90;99.90;;;;;;5094221;28;20023;-77
2021/12/18 11:38:44;;;;;;;;;;;8.80;99.90;;;;;;5112866;28;19930;-78
2021/12/18 11:41:14;;;;;;;;;;;8.80;99.90;;;;;;5094645;28;19924;-77
2021/12/18 11:43:43;;;;;;;;;;;8.80;99.90;;;;;;5129317;27;20042;-77
2021/12/18 11:46:26;;;;;;;;;;;8.80;99.90;;;;;;5094492;28;19928;-80
2021/12/18 11:48:53;;;;;;;;;;;8.80;99.90;;;;;;5094557;28;19927;-78
2021/12/18 11:51:19;;;;;;;;;;;8.80;99.90;;;;;;5094684;28;20022;-77
2021/12/18 11:53:44;;;;;;;;;;;8.80;99.90;;;;;;5113653;28;19975;-78
2021/12/18 11:56:10;;;;;;;;;;;8.80;99.90;;;;;;5094869;28;19949;-78
2021/12/18 11:58:41;;;;;;;;;;;8.80;99.90;;;;;;5095454;28;19967;-77
2021/12/18 12:01:13;;;;;;;;;;;8.80;99.90;;;;;;5095722;28;19963;-78
2021/12/18 12:03:42;;;;;;;;;;;8.80;99.90;;;;;;5096087;28;20022;-77
2021/12/18 12:06:24;;;;;;;;;;;8.80;99.90;;;;;;5095082;28;20013;-78
2021/12/18 12:08:52;;;;;;;;;;;8.80;99.90;;;;;;5110911;28;19943;-78
2021/12/18 12:11:25;;;;;;;;;;;8.90;99.90;;;;;;5078613;28;19927;-78
2021/12/18 12:13:55;;;;;;;;;;;8.90;99.90;;;;;;5078967;28;19994;-78
2021/12/18 12:16:39;;;;;;;;;;;8.90;99.90;;;;;;5095888;28;20721;-77
2021/12/18 12:19:06;;;;;;;;;;;8.90;99.90;;;;;;5095638;28;19924;-78
2021/12/18 12:21:38;;;;;;;;;;;8.90;99.90;;;;;;5079247;28;19924;-77
2021/12/18 12:24:04;;;;;;;;;;;8.90;99.90;;;;;;5045753;28;20300;-88
2021/12/18 12:26:30;;;;;;;;;;;8.90;99.90;;;;;;5079047;28;19924;-78
2021/12/18 12:28:56;;;;;;;;;;;8.90;99.90;;;;;;5079203;28;19978;-77
2021/12/18 12:31:21;;;;;;;;;;;8.90;99.90;;;;;;5062115;28;19931;-78
2021/12/18 12:33:49;;;;;;;;;;;8.90;99.90;;;;;;5062283;28;20653;-78
2021/12/18 12:36:24;;;;;;;;;;;8.90;99.90;;;;;;5045718;28;20321;-78
2021/12/18 12:38:54;;;;;;;;;;;8.80;99.90;;;;;;5107983;28;20385;-79
2021/12/18 12:41:28;;;;;;;;;;;8.80;99.90;;;;;;5092418;28;19924;-80
2021/12/18 12:43:55;;;;;;;;;;;8.80;99.90;;;;;;5081737;28;19977;-80
2021/12/18 12:46:21;;;;;;;;;;;8.80;99.90;;;;;;5103943;28;19930;-78
2021/12/18 12:48:57;;;;;;;;;;;8.80;99.90;;;;;;5094950;28;19950;-76
2021/12/18 12:51:23;;;;;;;;;;;8.80;99.90;;;;;;5106159;28;19975;-78
2021/12/18 12:53:50;;;;;;;;;;;8.80;99.90;;;;;;5074861;28;20378;-78
2021/12/18 12:56:16;;;;;;;;;;;8.80;99.90;;;;;;5095738;28;19923;-80
2021/12/18 12:58:42;;;;;;;;;;;8.80;99.90;;;;;;5092362;28;20380;-83
2021/12/18 13:01:08;;;;;;;;;;;8.80;99.90;;;;;;5085205;28;20045;-84
2021/12/18 13:03:43;;;;;;;;;;;8.80;99.90;;;;;;5094475;28;19927;-77
2021/12/18 13:06:10;;;;;;;;;;;8.80;99.90;;;;;;5108276;28;20346;-85
2021/12/18 13:08:40;;;;;;;;;;;8.80;99.90;;;;;;5097109;28;19968;-77
2021/12/18 13:11:06;;;;;;;;;;;8.80;99.90;;;;;;5115219;28;19928;-77
2021/12/18 13:13:34;;;;;;;;;;;8.80;99.90;;;;;;5113817;28;19935;-77
2021/12/18 13:16:10;;;;;;;;;;;8.80;99.90;;;;;;5113531;28;19923;-75
2021/12/18 13:18:38;;;;;;;;;;;8.80;99.90;;;;;;5079665;28;19923;-76
2021/12/18 13:21:05;;;;;;;;;;;8.80;99.90;;;;;;5114491;27;19993;-77
2021/12/18 13:23:37;;;;;;;;;;;8.80;99.90;;;;;;5114080;28;20010;-77
2021/12/18 13:26:04;;;;;;;;;;;8.80;99.90;;;;;;5121051;27;19931;-77
2021/12/18 13:28:29;;;;;;;;;;;8.80;99.90;;;;;;5092069;28;19924;-78
2021/12/18 13:30:55;;;;;;;;;;;8.80;99.90;;;;;;5096159;28;19946;-78
2021/12/18 13:33:25;;;;;;;;;;;8.80;99.90;;;;;;5096221;28;19924;-79
2021/12/18 13:35:58;;;;;;;;;;;8.80;99.90;;;;;;5112916;28;19930;-77
2021/12/18 13:38:25;;;;;;;;;;;8.80;99.90;;;;;;5073799;28;19976;-78
2021/12/18 13:40:51;;;;;;;;;;;8.70;99.90;;;;;;5094273;28;19931;-77
2021/12/18 13:43:24;;;;;;;;;;;8.80;99.90;;;;;;5114161;28;19927;-77
2021/12/18 13:45:58;;;;;;;;;;;8.70;99.90;;;;;;5095446;28;19935;-81
2021/12/18 13:48:28;;;;;;;;;;;8.70;99.90;;;;;;5095803;28;19939;-77
2021/12/18 13:50:55;;;;;;;;;;;8.70;99.90;;;;;;5114966;28;20392;-78
2021/12/18 13:53:20;;;;;;;;;;;8.70;99.90;;;;;;5096163;28;19998;-77
2021/12/18 13:55:51;;;;;;;;;;;8.60;99.90;;;;;;5079691;28;19982;-77
2021/12/18 13:58:24;;;;;;;;;;;8.60;99.90;;;;;;5089910;28;20357;-86
2021/12/18 14:01:00;;;;;;;;;;;8.70;99.90;;;;;;5096269;28;19928;-78
2021/12/18 14:03:32;;;;;;;;;;;8.60;99.90;;;;;;5096289;28;19924;-76
2021/12/18 14:05:59;;;;;;;;;;;8.60;99.90;;;;;;5096563;27;20272;-77
2021/12/18 14:08:25;;;;;;;;;;;8.60;99.90;;;;;;5080609;28;19924;-77
2021/12/18 14:10:52;;;;;;;;;;;8.60;99.90;;;;;;5106852;28;19939;-77
2021/12/18 14:13:17;;;;;;;;;;;8.60;99.90;;;;;;5112241;28;20331;-89
2021/12/18 14:15:43;;;;;;;;;;;8.60;99.90;;;;;;5078653;28;19932;-77
2021/12/18 14:18:27;;;;;;;;;;;8.50;99.90;;;;;;5078934;28;19963;-78
2021/12/18 14:20:53;;;;;;;;;;;8.50;99.90;;;;;;5093533;28;19931;-81
2021/12/18 14:23:18;;;;;;;;;;;8.50;99.90;;;;;;5094281;28;19932;-89
2021/12/18 14:25:44;;;;;;;;;;;8.50;99.90;;;;;;5092496;28;20002;-77
2021/12/18 14:28:17;;;;;;;;;;;8.50;99.90;;;;;;5095611;28;20381;-77
2021/12/18 14:30:44;;;;;;;;;;;8.40;99.90;;;;;;5091530;28;19939;-79
2021/12/18 14:33:11;;;;;;;;;;;8.40;99.90;;;;;;5113455;28;19927;-79
2021/12/18 14:35:52;;;;;;;;;;;8.40;99.90;;;;;;5113758;28;20388;-76
2021/12/18 14:38:19;;;;;;;;;;;8.40;99.90;;;;;;5087141;28;20661;-75
2021/12/18 14:40:55;;;;;;;;;;;8.40;99.90;;;;;;5078259;28;19932;-77
2021/12/18 14:43:25;;;;;;;;;;;8.40;99.90;;;;;;5095000;28;20587;-85
2021/12/18 14:45:50;;;;;;;;;;;8.30;99.90;;;;;;5098808;28;20010;-75
2021/12/18 14:48:26;;;;;;;;;;;8.30;99.90;;;;;;5112561;28;20027;-75
2021/12/18 14:50:52;;;;;;;;;;;8.30;99.90;;;;;;5094015;28;19972;-75
2021/12/18 14:53:20;;;;;;;;;;;8.20;99.90;;;;;;5093645;28;20415;-78
2021/12/18 14:55:50;;;;;;;;;;;8.30;99.90;;;;;;5096127;28;19963;-78
2021/12/18 14:58:18;;;;;;;;;;;8.20;99.90;;;;;;5094471;28;19980;-78
2021/12/18 15:01:00;;;;;;;;;;;8.30;99.90;;;;;;5097450;28;19981;-79
2021/12/18 15:03:28;;;;;;;;;;;8.20;99.90;;;;;;5131238;27;19924;-78
2021/12/18 15:05:57;;;;;;;;;;;8.20;99.90;;;;;;5111374;27;19951;-75
2021/12/18 15:08:22;;;;;;;;;;;8.20;99.90;;;;;;5080724;28;20327;-76
2021/12/18 15:10:56;;;;;;;;;;;8.20;99.90;;;;;;5088096;28;19928;-75
2021/12/18 15:13:24;;;;;;;;;;;8.20;99.90;;;;;;5108772;28;19927;-76